Time;durP1;ratioP1;P1;durP2;ratioP2;P2;SDS_P1;SDS_P2;PMS_P1;PMS_P2;Temp;Humidity;BMP_temperature;BMP_pressure;BME280_temperature;BME280_humidity;BME280_pressure;Samples;Min_cycle;Max_cycle;Signal;HPM_P1;HPM_P2
2021/01/04 00:02:27;;;;;;;24.15;10.75;;;2.40;99.90;;;;;;5112626;28;20141;-81
2021/01/04 00:05:16;;;;;;;22.95;10.13;;;2.40;99.90;;;;;;5100429;28;20059;-81
2021/01/04 00:08:21;;;;;;;21.35;10.43;;;2.30;99.90;;;;;;5102746;28;20055;-82
2021/01/04 00:11:11;;;;;;;23.55;10.50;;;2.30;99.90;;;;;;5098792;28;20051;-80
2021/01/04 00:13:51;;;;;;;20.77;10.45;;;2.40;99.90;;;;;;5098596;28;20465;-81
2021/01/04 00:16:33;;;;;;;23.17;9.77;;;2.40;99.90;;;;;;5089002;28;20048;-81
2021/01/04 00:19:11;;;;;;;20.95;9.05;;;2.40;99.90;;;;;;5107309;28;20063;-81
2021/01/04 00:21:50;;;;;;;26.60;10.73;;;2.40;99.90;;;;;;5084486;28;20052;-81
2021/01/04 00:24:25;;;;;;;19.77;10.07;;;2.40;99.90;;;;;;5109468;28;20063;-81
2021/01/04 00:27:00;;;;;;;21.85;10.88;;;2.40;99.90;;;;;;5101287;28;20059;-81
2021/01/04 00:29:29;;;;;;;23.58;10.13;;;2.40;99.90;;;;;;5101624;28;20048;-81
2021/01/04 00:31:57;;;;;;;;;;;2.40;99.90;;;;;;5082882;28;20059;-81
2021/01/04 00:34:31;;;;;;;21.95;9.60;;;2.40;99.90;;;;;;5101221;28;19927;-81
2021/01/04 00:37:24;;;;;;;18.55;9.30;;;2.40;99.90;;;;;;5107644;28;20052;-81
2021/01/04 00:40:03;;;;;;;19.98;9.85;;;2.30;99.90;;;;;;5090324;28;20051;-81
2021/01/04 00:42:36;;;;;;;18.50;8.40;;;2.30;99.90;;;;;;5099433;28;20062;-81
2021/01/04 00:45:14;;;;;;;19.88;8.70;;;2.30;99.90;;;;;;5085359;28;20054;-81
2021/01/04 00:48:05;;;;;;;19.95;8.80;;;2.30;99.90;;;;;;5106284;28;20055;-81
2021/01/04 00:50:52;;;;;;;19.08;9.07;;;2.30;99.90;;;;;;5088565;28;20056;-81
2021/01/04 00:53:25;;;;;;;17.58;8.70;;;2.30;99.90;;;;;;5086572;28;20381;-81
2021/01/04 00:56:29;;;;;;;20.27;9.60;;;2.30;99.90;;;;;;5085190;28;20350;-81
2021/01/04 00:59:20;;;;;;;17.05;8.88;;;2.30;99.90;;;;;;5086824;28;20043;-81
2021/01/04 01:02:14;;;;;;;18.58;8.63;;;2.30;99.90;;;;;;5089008;28;20055;-81
2021/01/04 01:04:55;;;;;;;18.48;9.45;;;2.30;99.90;;;;;;5106176;28;20056;-80
2021/01/04 01:07:30;;;;;;;;;;;2.30;99.90;;;;;;5101962;28;20044;-84
2021/01/04 01:09:59;;;;;;;18.08;8.80;;;2.30;99.90;;;;;;5082510;28;19939;-82
2021/01/04 01:12:41;;;;;;;21.08;9.52;;;2.30;99.90;;;;;;5080107;28;20473;-83
2021/01/04 01:15:19;;;;;;;18.77;9.50;;;2.30;99.90;;;;;;5089470;28;20059;-82
2021/01/04 01:18:16;;;;;;;17.58;9.30;;;2.30;99.90;;;;;;5079450;28;20048;-85
2021/01/04 01:20:52;;;;;;;19.02;8.77;;;2.30;99.90;;;;;;5097532;28;20056;-84
2021/01/04 01:23:24;;;;;;;20.35;9.93;;;2.30;99.90;;;;;;5085570;28;20494;-82
2021/01/04 01:26:05;;;;;;;20.70;9.10;;;2.30;99.90;;;;;;5082609;28;20056;-83
2021/01/04 01:29:02;;;;;;;19.15;9.30;;;2.40;99.90;;;;;;5109289;28;20048;-83
2021/01/04 01:32:15;;;;;;;20.50;9.15;;;2.40;99.90;;;;;;5078851;28;20052;-81
2021/01/04 01:35:07;;;;;;;21.38;9.65;;;2.30;99.90;;;;;;5065273;28;20055;-82
2021/01/04 01:38:15;;;;;;;17.45;8.80;;;2.40;99.90;;;;;;5095115;28;20397;-81
2021/01/04 01:41:20;;;;;;;23.50;11.15;;;2.40;99.90;;;;;;5119658;27;20051;-80
2021/01/04 01:44:05;;;;;;;19.77;9.35;;;2.40;99.90;;;;;;5094416;28;20044;-81
2021/01/04 01:46:40;;;;;;;18.83;9.30;;;2.40;99.90;;;;;;5095572;28;20373;-80
2021/01/04 01:49:32;;;;;;;22.20;9.93;;;2.40;99.90;;;;;;5087793;28;20055;-80
2021/01/04 01:52:16;;;;;;;22.27;10.35;;;2.40;99.90;;;;;;5080381;28;20058;-79
2021/01/04 01:55:15;;;;;;;22.55;10.38;;;2.40;99.90;;;;;;5091302;28;20051;-78
2021/01/04 01:58:02;;;;;;;26.08;10.15;;;2.30;99.90;;;;;;5110724;28;20044;-80
2021/01/04 02:00:38;;;;;;;22.90;9.95;;;2.40;99.90;;;;;;5095041;28;20299;-80
2021/01/04 02:03:10;;;;;;;25.08;10.88;;;2.30;99.90;;;;;;5102865;28;20056;-84
2021/01/04 02:06:06;;;;;;;23.13;10.30;;;2.30;99.90;;;;;;5075762;28;20073;-79
2021/01/04 02:08:41;;;;;;;20.63;10.00;;;2.30;99.90;;;;;;5112066;28;20040;-78
2021/01/04 02:11:21;;;;;;;21.13;9.52;;;2.40;99.90;;;;;;5077761;28;20075;-79
2021/01/04 02:14:04;;;;;;;24.58;10.45;;;2.30;99.90;;;;;;5078661;28;20063;-80
2021/01/04 02:16:54;;;;;;;24.88;10.40;;;2.30;99.90;;;;;;5095915;28;20048;-79
2021/01/04 02:19:36;;;;;;;24.65;9.82;;;2.30;99.90;;;;;;5107359;28;20500;-80
2021/01/04 02:22:34;;;;;;;23.27;10.10;;;2.30;99.90;;;;;;5079666;28;20477;-82
2021/01/04 02:25:03;;;;;;;20.88;9.93;;;2.30;99.90;;;;;;5093857;28;20048;-79
2021/01/04 02:27:35;;;;;;;21.33;10.57;;;2.30;99.90;;;;;;5100500;28;20051;-80
2021/01/04 02:30:02;;;;;;;27.70;11.80;;;2.30;99.90;;;;;;5094641;28;20374;-80
2021/01/04 02:32:30;;;;;;;22.02;9.98;;;2.30;99.90;;;;;;5093445;28;20047;-79
2021/01/04 02:35:00;;;;;;;20.90;9.73;;;2.30;99.90;;;;;;5093888;28;20405;-79
2021/01/04 02:37:29;;;;;;;22.58;10.27;;;2.30;99.90;;;;;;5078453;28;20048;-79
2021/01/04 02:39:59;;;;;;;19.95;9.13;;;2.30;99.90;;;;;;5094684;28;20064;-80
2021/01/04 02:42:30;;;;;;;21.85;9.90;;;2.20;99.90;;;;;;5081412;28;20052;-83
2021/01/04 02:44:59;;;;;;;22.50;10.32;;;2.20;99.90;;;;;;5095449;28;20405;-80
2021/01/04 02:48:05;;;;;;;23.45;9.70;;;2.20;99.90;;;;;;5080266;28;20058;-80
2021/01/04 02:50:40;;;;;;;22.10;10.05;;;2.20;99.90;;;;;;5087500;28;20385;-81
2021/01/04 02:53:34;;;;;;;22.38;10.75;;;2.30;99.90;;;;;;5097928;28;20055;-81
2021/01/04 02:56:35;;;;;;;20.77;9.40;;;2.30;99.90;;;;;;5099817;28;20055;-80
2021/01/04 02:59:45;;;;;;;24.40;10.73;;;2.30;99.90;;;;;;5099641;28;20487;-80
2021/01/04 03:02:20;;;;;;;20.17;9.88;;;2.30;99.90;;;;;;5099148;28;20097;-82
2021/01/04 03:04:49;;;;;;;19.15;8.82;;;2.30;99.90;;;;;;5094108;28;20048;-80
2021/01/04 03:07:23;;;;;;;24.23;9.88;;;2.40;99.90;;;;;;5079764;28;20063;-81
2021/01/04 03:09:56;;;;;;;22.85;10.05;;;2.30;99.90;;;;;;5100754;28;20060;-83
2021/01/04 03:12:27;;;;;;;23.63;9.77;;;2.30;99.90;;;;;;5103777;28;20079;-81
2021/01/04 03:15:08;;;;;;;18.98;9.60;;;2.40;99.90;;;;;;5097434;28;20074;-81
2021/01/04 03:17:54;;;;;;;22.67;10.07;;;2.40;99.90;;;;;;5076773;28;20051;-79
2021/01/04 03:20:24;;;;;;;19.88;9.48;;;2.40;99.90;;;;;;5108307;28;20221;-80
2021/01/04 03:22:55;;;;;;;24.58;10.15;;;2.40;99.90;;;;;;5088957;28;20043;-79
2021/01/04 03:25:35;;;;;;;20.70;9.17;;;2.40;99.90;;;;;;5094145;28;20048;-79
2021/01/04 03:28:05;;;;;;;21.23;9.48;;;2.40;99.90;;;;;;5078580;28;20445;-79
2021/01/04 03:30:34;;;;;;;24.38;10.55;;;2.40;99.90;;;;;;5096678;28;20075;-80
2021/01/04 03:33:03;;;;;;;23.77;10.40;;;2.40;99.90;;;;;;5105860;28;20059;-80
2021/01/04 03:35:32;;;;;;;25.75;10.07;;;2.40;99.90;;;;;;5093683;28;20052;-81
2021/01/04 03:37:59;;;;;;;19.85;9.65;;;2.40;99.90;;;;;;5096194;28;20052;-80
2021/01/04 03:40:27;;;;;;;19.63;9.93;;;2.30;99.90;;;;;;5094128;28;20048;-81
2021/01/04 03:42:54;;;;;;;20.73;9.95;;;2.30;99.90;;;;;;5093679;28;20051;-80
2021/01/04 03:45:24;;;;;;;23.75;10.77;;;2.30;99.90;;;;;;5094159;28;20055;-81
2021/01/04 03:47:51;;;;;;;24.42;9.57;;;2.30;99.90;;;;;;5094687;28;20044;-81
2021/01/04 03:50:23;;;;;;;28.13;11.77;;;2.40;99.90;;;;;;5096525;28;20044;-80
2021/01/04 03:52:52;;;;;;;22.83;10.38;;;2.40;99.90;;;;;;5099884;28;20047;-80
2021/01/04 03:55:20;;;;;;;;;;;2.30;99.90;;;;;;5079530;28;20052;-80
2021/01/04 03:57:48;;;;;;;21.80;9.60;;;2.30;99.90;;;;;;5097493;28;20361;-79
2021/01/04 04:00:19;;;;;;;21.92;10.30;;;2.30;99.90;;;;;;5085266;28;20354;-79
2021/01/04 04:02:49;;;;;;;27.63;9.75;;;2.30;99.90;;;;;;5081361;28;20059;-78
2021/01/04 04:05:18;;;;;;;26.33;11.30;;;2.30;99.90;;;;;;5097346;28;20493;-78
2021/01/04 04:07:48;;;;;;;21.40;10.40;;;2.30;99.90;;;;;;5096794;28;20385;-78
2021/01/04 04:10:17;;;;;;;24.95;11.52;;;2.30;99.90;;;;;;5099875;28;20048;-79
2021/01/04 04:12:45;;;;;;;25.27;11.40;;;2.30;99.90;;;;;;5080425;28;20052;-79
2021/01/04 04:15:17;;;;;;;27.88;11.05;;;2.30;99.90;;;;;;5100512;28;20051;-82
2021/01/04 04:17:48;;;;;;;26.23;11.15;;;2.30;99.90;;;;;;5084579;28;20044;-79
2021/01/04 04:20:18;;;;;;;25.50;10.97;;;2.30;99.90;;;;;;5080577;28;20040;-80
2021/01/04 04:22:48;;;;;;;24.88;10.80;;;2.30;99.90;;;;;;5092341;28;20302;-80
2021/01/04 04:25:18;;;;;;;36.33;14.45;;;2.20;99.90;;;;;;5089105;28;20059;-79
2021/01/04 04:27:46;;;;;;;26.77;11.68;;;2.30;99.90;;;;;;5097675;28;20415;-80
2021/01/04 04:30:21;;;;;;;25.38;11.23;;;2.20;99.90;;;;;;5080364;28;20051;-81
2021/01/04 04:32:52;;;;;;;26.20;11.48;;;2.30;99.90;;;;;;5080557;28;20051;-80
2021/01/04 04:35:20;;;;;;;24.50;10.63;;;2.30;99.90;;;;;;5063662;28;20067;-80
2021/01/04 04:37:51;;;;;;;26.60;9.90;;;2.30;99.90;;;;;;5096566;28;20052;-78
2021/01/04 04:40:24;;;;;;;27.75;10.52;;;2.20;99.90;;;;;;5082058;28;20055;-79
2021/01/04 04:42:59;;;;;;;26.35;10.55;;;2.30;99.90;;;;;;5081410;28;20060;-81
2021/01/04 04:45:27;;;;;;;21.27;9.50;;;2.20;99.90;;;;;;5096537;28;20056;-81
2021/01/04 04:48:19;;;;;;;28.33;11.55;;;2.30;99.90;;;;;;5096663;28;20052;-81
2021/01/04 04:51:07;;;;;;;23.90;10.88;;;2.30;99.90;;;;;;5073151;28;20044;-82
2021/01/04 04:54:01;;;;;;;23.48;10.38;;;2.30;99.90;;;;;;5101140;28;20499;-82
2021/01/04 04:56:57;;;;;;;25.33;10.48;;;2.20;99.90;;;;;;5108937;28;20088;-83
2021/01/04 04:59:35;;;;;;;23.65;10.32;;;2.20;99.90;;;;;;5091195;28;20040;-79
2021/01/04 05:02:12;;;;;;;18.90;7.78;;;2.20;99.90;;;;;;5096003;28;20060;-79
2021/01/04 05:05:03;;;;;;;23.67;10.80;;;2.20;99.90;;;;;;5080892;28;20063;-79
2021/01/04 05:07:48;;;;;;;22.42;10.30;;;2.20;99.90;;;;;;5106079;28;20064;-81
2021/01/04 05:10:20;;;;;;;23.50;10.48;;;2.20;99.90;;;;;;5064547;28;20048;-80
2021/01/04 05:12:59;;;;;;;27.95;10.90;;;2.30;99.90;;;;;;5080051;28;20059;-82
2021/01/04 05:15:41;;;;;;;;;;;2.30;99.90;;;;;;5099574;28;20047;-81
2021/01/04 05:18:45;;;;;;;24.70;10.43;;;2.20;99.90;;;;;;5095073;28;19931;-82
2021/01/04 05:21:44;;;;;;;26.10;10.35;;;2.30;99.90;;;;;;5099853;28;20048;-80
2021/01/04 05:24:49;;;;;;;25.05;10.80;;;2.30;99.90;;;;;;5087494;28;20048;-80
2021/01/04 05:27:54;;;;;;;28.30;12.45;;;2.30;99.90;;;;;;5086232;28;20067;-82
2021/01/04 05:30:47;;;;;;;26.00;11.85;;;2.20;99.90;;;;;;5075483;28;20059;-81
2021/01/04 05:33:54;;;;;;;25.85;11.35;;;2.20;99.90;;;;;;5107819;28;20056;-80
2021/01/04 05:36:40;;;;;;;23.17;10.75;;;2.30;99.90;;;;;;5100440;28;20067;-81
2021/01/04 05:39:16;;;;;;;27.98;11.35;;;2.30;99.90;;;;;;5101570;28;20362;-79
2021/01/04 05:42:12;;;;;;;29.35;12.05;;;2.30;99.90;;;;;;5101053;28;20075;-80
2021/01/04 05:45:02;;;;;;;23.27;10.07;;;2.20;99.90;;;;;;5085881;28;20063;-80
2021/01/04 05:47:37;;;;;;;26.98;11.02;;;2.20;99.90;;;;;;5103644;28;20481;-82
2021/01/04 05:50:20;;;;;;;26.58;10.23;;;2.20;99.90;;;;;;5086509;28;20469;-79
2021/01/04 05:52:49;;;;;;;25.17;10.50;;;2.30;99.90;;;;;;5095961;28;20054;-80
2021/01/04 05:55:20;;;;;;;25.08;10.57;;;2.20;99.90;;;;;;5081903;28;20056;-83
2021/01/04 05:57:49;;;;;;;23.38;10.15;;;2.20;99.90;;;;;;5084667;28;20052;-80
2021/01/04 06:00:33;;;;;;;24.88;9.90;;;2.20;99.90;;;;;;5108166;28;20058;-80
2021/01/04 06:03:13;;;;;;;27.55;11.32;;;2.20;99.90;;;;;;5107855;28;20114;-79
2021/01/04 06:05:43;;;;;;;23.92;10.15;;;2.20;99.90;;;;;;5100968;28;20051;-79
2021/01/04 06:08:30;;;;;;;24.92;11.77;;;2.20;99.90;;;;;;5081923;28;20052;-81
2021/01/04 06:11:08;;;;;;;23.10;10.13;;;2.20;99.90;;;;;;5085845;28;20048;-81
2021/01/04 06:13:38;;;;;;;24.98;10.30;;;2.20;99.90;;;;;;5092737;28;20056;-79
2021/01/04 06:16:12;;;;;;;22.65;9.75;;;2.20;99.90;;;;;;5089181;28;20048;-80
2021/01/04 06:18:51;;;;;;;24.80;10.98;;;2.20;99.90;;;;;;5088343;28;20052;-81
2021/01/04 06:21:41;;;;;;;23.85;10.60;;;2.20;99.90;;;;;;5104915;28;20058;-80
2021/01/04 06:24:14;;;;;;;27.92;10.63;;;2.20;99.90;;;;;;5102261;28;20056;-80
2021/01/04 06:26:51;;;;;;;24.85;10.73;;;2.20;99.90;;;;;;5100182;28;20052;-80
2021/01/04 06:29:52;;;;;;;28.30;11.60;;;2.20;99.90;;;;;;5082059;28;20055;-79
2021/01/04 06:32:28;;;;;;;25.02;10.70;;;2.20;99.90;;;;;;5081370;28;20052;-79
2021/01/04 06:35:02;;;;;;;;;;;2.20;99.90;;;;;;5137050;27;20056;-80
2021/01/04 06:37:38;;;;;;;23.48;9.35;;;2.20;99.90;;;;;;5105349;28;19920;-78
2021/01/04 06:40:57;;;;;;;27.55;10.02;;;2.10;99.90;;;;;;5078526;28;20039;-83
2021/01/04 06:43:36;;;;;;;25.95;10.57;;;2.10;99.90;;;;;;5104819;28;20044;-80
2021/01/04 06:46:29;;;;;;;27.55;10.73;;;2.10;99.90;;;;;;5081379;28;20059;-82
2021/01/04 06:49:06;;;;;;;23.65;9.45;;;2.10;99.90;;;;;;5098476;28;20067;-81
2021/01/04 06:51:55;;;;;;;25.13;10.73;;;2.10;99.90;;;;;;5117731;27;20394;-81
2021/01/04 06:54:49;;;;;;;30.25;11.55;;;2.10;99.90;;;;;;5090175;28;20059;-81
2021/01/04 06:57:58;;;;;;;26.58;10.00;;;2.20;99.90;;;;;;5092346;28;20058;-82
2021/01/04 07:00:38;;;;;;;25.58;10.63;;;2.20;99.90;;;;;;5082585;28;20055;-79
2021/01/04 07:03:46;;;;;;;28.88;10.70;;;2.20;99.90;;;;;;5073203;28;20052;-79
2021/01/04 07:06:43;;;;;;;25.35;11.05;;;2.20;99.90;;;;;;5067046;28;20048;-80
2021/01/04 07:09:42;;;;;;;24.88;9.98;;;2.20;99.90;;;;;;5008554;28;20061;-81
2021/01/04 07:12:18;;;;;;;23.00;10.65;;;2.20;99.90;;;;;;5020983;28;20053;-80
2021/01/04 07:15:18;;;;;;;26.52;10.23;;;2.20;99.90;;;;;;5037032;28;20052;-80
2021/01/04 07:18:02;;;;;;;26.20;10.32;;;2.20;99.90;;;;;;5024180;28;20049;-79
2021/01/04 07:20:41;;;;;;;31.65;11.38;;;2.20;99.90;;;;;;5010754;28;20072;-79
2021/01/04 07:23:24;;;;;;;26.25;10.70;;;2.20;99.90;;;;;;5044200;28;20055;-80
2021/01/04 07:26:02;;;;;;;22.20;9.73;;;2.20;99.90;;;;;;5021551;28;20057;-80
2021/01/04 07:28:48;;;;;;;25.48;10.13;;;2.20;99.90;;;;;;5028502;28;20056;-80
2021/01/04 07:31:30;;;;;;;26.40;10.27;;;2.20;99.90;;;;;;5027093;28;20048;-79
2021/01/04 07:34:03;;;;;;;26.95;10.63;;;2.20;99.90;;;;;;5051006;28;20056;-81
2021/01/04 07:36:39;;;;;;;28.70;11.43;;;2.20;99.90;;;;;;5047558;28;20048;-82
2021/01/04 07:39:32;;;;;;;27.42;11.30;;;2.20;99.90;;;;;;5036934;28;20049;-83
2021/01/04 07:42:25;;;;;;;24.75;10.55;;;2.30;99.90;;;;;;5029651;28;20603;-81
2021/01/04 07:45:19;;;;;;;29.98;13.40;;;2.20;99.90;;;;;;5031128;28;20052;-80
2021/01/04 07:48:34;;;;;;;31.92;11.23;;;2.20;99.90;;;;;;5102837;28;20082;-83
2021/01/04 07:51:17;;;;;;;25.75;11.25;;;2.20;99.90;;;;;;5085988;28;20048;-83
2021/01/04 07:54:14;;;;;;;24.65;10.60;;;2.30;99.90;;;;;;5091189;28;20056;-82
2021/01/04 07:57:30;;;;;;;27.27;11.15;;;2.30;99.90;;;;;;5086249;28;20044;-80
2021/01/04 08:00:35;;;;;;;29.55;10.20;;;2.30;99.90;;;;;;5087642;28;20059;-81
2021/01/04 08:03:37;;;;;;;29.63;10.98;;;2.30;99.90;;;;;;5103571;28;20048;-81
2021/01/04 08:06:50;;;;;;;27.00;10.93;;;2.30;99.90;;;;;;5105038;28;20078;-84
2021/01/04 08:09:29;;;;;;;27.60;10.38;;;2.30;99.90;;;;;;5030683;28;20067;-82
2021/01/04 08:12:31;;;;;;;26.80;11.05;;;2.30;99.90;;;;;;5007516;28;20053;-80
2021/01/04 08:15:28;;;;;;;30.83;11.77;;;2.40;99.90;;;;;;5012022;28;20072;-81
2021/01/04 08:17:58;;;;;;;30.33;10.50;;;2.40;99.90;;;;;;5046789;28;20069;-82
2021/01/04 08:20:26;;;;;;;27.80;10.68;;;2.40;99.90;;;;;;5027204;28;20164;-80
2021/01/04 08:23:16;;;;;;;28.73;10.75;;;2.40;99.90;;;;;;5009557;28;20054;-85
2021/01/04 08:25:56;;;;;;;28.10;10.32;;;2.40;99.90;;;;;;5030829;28;20057;-81
2021/01/04 08:28:43;;;;;;;28.25;11.15;;;2.40;99.90;;;;;;5028043;28;20058;-82
2021/01/04 08:31:24;;;;;;;30.08;10.93;;;2.40;99.90;;;;;;5007358;28;20116;-79
2021/01/04 08:33:55;;;;;;;26.92;11.52;;;2.50;99.90;;;;;;5033658;28;20139;-81
2021/01/04 08:36:31;;;;;;;31.33;11.43;;;2.50;99.90;;;;;;5030077;28;20053;-82
2021/01/04 08:39:12;;;;;;;26.08;10.30;;;2.50;99.90;;;;;;5024195;28;20048;-81
2021/01/04 08:41:42;;;;;;;25.42;9.90;;;2.50;99.90;;;;;;5034203;28;20356;-80
2021/01/04 08:44:17;;;;;;;31.15;10.95;;;2.60;99.90;;;;;;5014226;28;20421;-80
2021/01/04 08:46:50;;;;;;;28.30;11.48;;;2.60;99.90;;;;;;5075292;28;20357;-81
2021/01/04 08:49:22;;;;;;;27.90;10.98;;;2.70;99.90;;;;;;5089762;28;20063;-81
2021/01/04 08:51:53;;;;;;;29.20;10.93;;;2.70;99.90;;;;;;5097026;28;20041;-83
2021/01/04 08:54:27;;;;;;;29.50;10.88;;;2.70;99.90;;;;;;5053652;28;20056;-81
2021/01/04 08:57:12;;;;;;;31.75;11.00;;;2.70;99.90;;;;;;5052485;28;20081;-80
2021/01/04 08:59:56;;;;;;;26.98;10.32;;;2.80;99.90;;;;;;5070112;28;20473;-83
2021/01/04 09:02:34;;;;;;;30.90;11.30;;;2.70;99.90;;;;;;5085838;28;20053;-82
2021/01/04 09:05:06;;;;;;;24.63;10.35;;;2.80;99.90;;;;;;5084037;28;20059;-83
2021/01/04 09:07:48;;;;;;;32.08;12.18;;;2.80;99.90;;;;;;5062093;28;20048;-81
2021/01/04 09:10:20;;;;;;;32.47;12.23;;;2.80;99.90;;;;;;5076805;28;20043;-81
2021/01/04 09:12:52;;;;;;;32.50;12.50;;;2.80;99.90;;;;;;5080581;28;20477;-81
2021/01/04 09:15:32;;;;;;;27.85;10.80;;;2.80;99.90;;;;;;5079208;28;20043;-83
2021/01/04 09:18:36;;;;;;;32.28;11.80;;;2.90;99.90;;;;;;5095522;28;20048;-80
2021/01/04 09:21:20;;;;;;;34.55;11.07;;;2.90;99.90;;;;;;5081265;28;20052;-80
2021/01/04 09:23:48;;;;;;;29.42;12.27;;;2.90;99.90;;;;;;5077530;28;20052;-82
2021/01/04 09:26:28;;;;;;;32.72;11.68;;;3.00;99.90;;;;;;5097518;28;20062;-82
2021/01/04 09:29:14;;;;;;;30.85;11.18;;;2.90;99.90;;;;;;5090663;28;20055;-80
2021/01/04 09:31:48;;;;;;;28.30;10.68;;;2.90;99.90;;;;;;5062283;28;20044;-83
2021/01/04 09:34:20;;;;;;;28.45;11.48;;;2.90;99.90;;;;;;5078829;28;20095;-83
2021/01/04 09:36:49;;;;;;;28.40;10.43;;;2.90;99.90;;;;;;5081812;28;20047;-84
2021/01/04 09:39:26;;;;;;;25.10;10.23;;;2.90;99.90;;;;;;5080158;28;20048;-82
2021/01/04 09:41:58;;;;;;;27.08;9.80;;;2.90;99.90;;;;;;5096179;28;20044;-84
2021/01/04 09:44:27;;;;;;;36.13;12.80;;;2.90;99.90;;;;;;5095580;28;20052;-84
2021/01/04 09:47:04;;;;;;;27.73;10.45;;;3.00;99.90;;;;;;5096465;28;20381;-83
2021/01/04 09:49:38;;;;;;;25.02;10.30;;;3.00;99.90;;;;;;5099774;28;20051;-82
2021/01/04 09:52:20;;;;;;;29.50;10.70;;;3.00;99.90;;;;;;5088451;28;20052;-81
2021/01/04 09:54:51;;;;;;;29.08;11.98;;;2.90;99.90;;;;;;5083989;28;20063;-83
2021/01/04 09:57:23;;;;;;;27.58;10.48;;;3.00;99.90;;;;;;5156163;27;20059;-86
2021/01/04 09:59:52;;;;;;;29.13;10.80;;;3.00;99.90;;;;;;5094881;28;20050;-82
2021/01/04 10:02:25;;;;;;;27.63;10.82;;;3.00;99.90;;;;;;5085069;28;20055;-82
2021/01/04 10:04:54;;;;;;;26.35;10.20;;;3.00;99.90;;;;;;5096734;28;20051;-83
2021/01/04 10:07:28;;;;;;;26.95;10.45;;;2.90;99.90;;;;;;5095672;28;20381;-83
2021/01/04 10:09:59;;;;;;;30.92;10.73;;;3.00;99.90;;;;;;5097474;28;20060;-82
2021/01/04 10:12:28;;;;;;;24.83;10.10;;;2.90;99.90;;;;;;5087632;28;20448;-82
2021/01/04 10:14:58;;;;;;;28.88;11.20;;;2.90;99.90;;;;;;5103446;28;20052;-83
2021/01/04 10:17:40;;;;;;;27.05;10.05;;;3.00;99.90;;;;;;5079024;28;20047;-80
2021/01/04 10:20:24;;;;;;;31.77;10.57;;;2.90;99.90;;;;;;5104267;28;20052;-83
2021/01/04 10:22:57;;;;;;;26.83;10.07;;;3.00;99.90;;;;;;5079120;28;20052;-83
2021/01/04 10:25:36;;;;;;;24.85;10.63;;;3.00;99.90;;;;;;5094504;28;20051;-79
2021/01/04 10:28:08;;;;;;;28.30;10.43;;;3.10;99.90;;;;;;5096158;28;20048;-81
2021/01/04 10:30:36;;;;;;;27.33;10.20;;;3.10;99.90;;;;;;5098218;28;20043;-82
2021/01/04 10:33:11;;;;;;;30.23;10.63;;;3.10;99.90;;;;;;5098786;28;20052;-81
2021/01/04 10:35:39;;;;;;;30.83;10.52;;;3.10;99.90;;;;;;5080310;28;20052;-80
2021/01/04 10:38:13;;;;;;;28.02;9.98;;;3.10;99.90;;;;;;5099547;28;20071;-81
2021/01/04 10:40:48;;;;;;;31.30;10.48;;;3.20;99.90;;;;;;5079819;28;20044;-81
2021/01/04 10:43:19;;;;;;;29.40;11.18;;;3.10;99.90;;;;;;5078063;28;20052;-80
2021/01/04 10:45:50;;;;;;;32.53;11.48;;;3.20;99.90;;;;;;5078896;28;20047;-82
2021/01/04 10:48:22;;;;;;;28.38;10.70;;;3.20;99.90;;;;;;5089761;28;20051;-93
2021/01/04 10:50:53;;;;;;;28.50;10.48;;;3.20;99.90;;;;;;5109888;28;20465;-87
2021/01/04 10:53:35;;;;;;;28.38;10.75;;;3.20;99.90;;;;;;5079076;28;20067;-85
2021/01/04 10:56:22;;;;;;;28.83;9.75;;;3.30;99.90;;;;;;5080372;28;20048;-86
2021/01/04 10:59:03;;;;;;;30.77;10.77;;;3.20;99.90;;;;;;5112225;28;20066;-82
2021/01/04 11:01:33;;;;;;;26.35;10.05;;;3.20;99.90;;;;;;5130487;27;20075;-87
2021/01/04 11:04:10;;;;;;;31.80;10.45;;;3.20;99.90;;;;;;5080627;28;20059;-85
2021/01/04 11:06:40;;;;;;;27.45;10.50;;;3.20;99.90;;;;;;5079387;28;20044;-88
2021/01/04 11:09:16;;;;;;;28.00;10.30;;;3.30;99.90;;;;;;5081515;28;20056;-85
2021/01/04 11:11:48;;;;;;;28.88;10.50;;;3.30;99.90;;;;;;5097379;28;20071;-88
2021/01/04 11:14:21;;;;;;;30.92;11.27;;;3.30;99.90;;;;;;5095947;28;20054;-85
2021/01/04 11:16:53;;;;;;;30.33;10.82;;;3.30;99.90;;;;;;5096984;28;20085;-82
2021/01/04 11:19:31;;;;;;;25.55;10.55;;;3.20;99.90;;;;;;5080277;28;20051;-80
2021/01/04 11:22:09;;;;;;;29.98;10.52;;;3.20;99.90;;;;;;5082132;28;20055;-82
2021/01/04 11:24:37;;;;;;;25.10;10.40;;;3.20;99.90;;;;;;5093246;28;20135;-81
2021/01/04 11:27:05;;;;;;;33.13;10.93;;;3.20;99.90;;;;;;5079716;28;20136;-84
2021/01/04 11:29:39;;;;;;;27.52;10.35;;;3.20;99.90;;;;;;5099218;28;20044;-83
2021/01/04 11:32:07;;;;;;;22.15;9.57;;;3.20;99.90;;;;;;5095821;28;20048;-86
2021/01/04 11:34:38;;;;;;;26.15;9.63;;;3.30;99.90;;;;;;5107886;28;20051;-90
2021/01/04 11:37:08;;;;;;;28.08;10.20;;;3.30;99.90;;;;;;5091464;28;20056;-88
2021/01/04 11:39:38;;;;;;;24.88;9.93;;;3.40;99.90;;;;;;5085300;28;20051;-87
2021/01/04 11:42:07;;;;;;;30.20;10.95;;;3.40;99.90;;;;;;5094213;28;20385;-84
2021/01/04 11:44:43;;;;;;;26.13;9.73;;;3.40;99.90;;;;;;5082805;28;20051;-85
2021/01/04 11:47:11;;;;;;;33.20;11.18;;;3.40;99.90;;;;;;5077007;28;20056;-88
2021/01/04 11:49:41;;;;;;;30.27;11.98;;;3.40;99.90;;;;;;5076743;28;20048;-85
2021/01/04 11:52:10;;;;;;;23.63;10.45;;;3.40;99.90;;;;;;5094292;28;20055;-85
2021/01/04 11:54:41;;;;;;;28.08;9.63;;;3.50;99.90;;;;;;5095575;28;20044;-85
2021/01/04 11:57:11;;;;;;;25.80;10.23;;;3.40;99.90;;;;;;5095535;28;20047;-84
2021/01/04 11:59:41;;;;;;;27.80;10.85;;;3.40;99.90;;;;;;5090096;28;20052;-81
2021/01/04 12:02:12;;;;;;;28.52;10.25;;;3.40;99.90;;;;;;5094182;28;20056;-83
2021/01/04 12:04:42;;;;;;;30.60;9.75;;;3.40;99.90;;;;;;5093519;28;20082;-81
2021/01/04 12:07:10;;;;;;;35.80;12.15;;;3.40;99.90;;;;;;5093585;28;20055;-85
2021/01/04 12:09:41;;;;;;;25.80;10.18;;;3.40;99.90;;;;;;5094913;28;20465;-87
2021/01/04 12:12:12;;;;;;;25.83;9.65;;;3.40;99.90;;;;;;5097641;28;20044;-85
2021/01/04 12:14:40;;;;;;;27.35;9.77;;;3.40;99.90;;;;;;5092782;28;20052;-83
2021/01/04 12:17:10;;;;;;;27.92;9.77;;;3.50;99.90;;;;;;5091733;28;20056;-83
2021/01/04 12:19:37;;;;;;;28.58;10.80;;;3.40;99.90;;;;;;5107478;28;20376;-83
2021/01/04 12:22:15;;;;;;;24.75;10.85;;;3.40;99.90;;;;;;5092015;28;20048;-83
2021/01/04 12:25:13;;;;;;;29.48;10.55;;;3.30;99.90;;;;;;5072287;28;20048;-87
2021/01/04 12:27:40;;;;;;;34.00;9.90;;;3.30;99.90;;;;;;5097573;28;20479;-81
2021/01/04 12:30:11;;;;;;;27.27;9.60;;;3.30;99.90;;;;;;5114765;28;20055;-82
2021/01/04 12:32:41;;;;;;;25.95;10.63;;;3.30;99.90;;;;;;5093065;28;20044;-86
2021/01/04 12:35:10;;;;;;;25.08;9.23;;;3.30;99.90;;;;;;5111194;28;20476;-83
2021/01/04 12:37:39;;;;;;;32.25;10.27;;;3.20;99.90;;;;;;5096298;28;20054;-83
2021/01/04 12:40:12;;;;;;;30.60;9.27;;;3.20;99.90;;;;;;5078859;28;20404;-82
2021/01/04 12:42:41;;;;;;;25.92;9.48;;;3.10;99.90;;;;;;5095001;28;20058;-83
2021/01/04 12:45:12;;;;;;;27.38;10.55;;;3.20;99.90;;;;;;5078952;28;20055;-82
2021/01/04 12:47:39;;;;;;;;;;;3.10;99.90;;;;;;5077767;28;20533;-81
2021/01/04 12:50:09;;;;;;;26.80;9.07;;;3.10;99.90;;;;;;5078964;28;19944;-83
2021/01/04 12:52:36;;;;;;;28.50;9.85;;;3.00;99.90;;;;;;5079187;28;20063;-83
2021/01/04 12:55:13;;;;;;;26.98;10.25;;;3.00;99.90;;;;;;5096395;28;20066;-82
2021/01/04 12:57:42;;;;;;;32.03;10.85;;;3.00;99.90;;;;;;5097679;28;20377;-82
2021/01/04 13:00:22;;;;;;;24.40;9.85;;;3.00;99.90;;;;;;5096214;28;20056;-80
2021/01/04 13:02:51;;;;;;;29.50;10.45;;;2.90;99.90;;;;;;5079528;28;20052;-81
2021/01/04 13:05:20;;;;;;;30.40;9.48;;;2.90;99.90;;;;;;5096916;28;20044;-81
2021/01/04 13:07:48;;;;;;;24.63;9.10;;;2.80;99.90;;;;;;5087065;28;20063;-80
2021/01/04 13:10:17;;;;;;;27.45;9.93;;;2.80;99.90;;;;;;5080515;28;20048;-82
2021/01/04 13:12:47;;;;;;;28.95;10.20;;;2.80;99.90;;;;;;5097734;28;20040;-83
2021/01/04 13:15:16;;;;;;;28.27;9.70;;;2.80;99.90;;;;;;5092007;28;20048;-82
2021/01/04 13:17:47;;;;;;;30.13;10.15;;;2.80;99.90;;;;;;5081940;28;20047;-81
2021/01/04 13:20:16;;;;;;;29.58;11.20;;;2.80;99.90;;;;;;5118631;27;20389;-80
2021/01/04 13:22:44;;;;;;;30.35;10.88;;;2.80;99.90;;;;;;5079429;28;20055;-81
2021/01/04 13:25:12;;;;;;;29.00;9.55;;;2.80;99.90;;;;;;5096240;28;20386;-81
2021/01/04 13:27:49;;;;;;;33.95;12.20;;;2.80;99.90;;;;;;5098415;28;20055;-81
2021/01/04 13:30:20;;;;;;;28.60;10.30;;;2.80;99.90;;;;;;5099362;28;20071;-81
2021/01/04 13:32:51;;;;;;;27.58;9.07;;;2.80;99.90;;;;;;5097977;28;20058;-83
2021/01/04 13:35:18;;;;;;;23.85;8.60;;;2.80;99.90;;;;;;5093748;28;20059;-80
2021/01/04 13:37:48;;;;;;;28.40;11.27;;;2.70;99.90;;;;;;5078283;28;20469;-82
2021/01/04 13:40:17;;;;;;;30.25;9.32;;;2.80;99.90;;;;;;5079334;28;20070;-81